Time;durP1;ratioP1;P1;durP2;ratioP2;P2;SDS_P1;SDS_P2;PMS_P1;PMS_P2;Temp;Humidity;BMP_temperature;BMP_pressure;BME280_temperature;BME280_humidity;BME280_pressure;Samples;Min_cycle;Max_cycle;Signal;HPM_P1;HPM_P2
2021/11/26 00:00:43;;;;;;;56.93;28.47;;;1.70;99.90;;;;;;4936522;29;20407;-71
2021/11/26 00:03:08;;;;;;;71.20;30.07;;;1.70;99.90;;;;;;4953846;29;20203;-71
2021/11/26 00:05:34;;;;;;;60.60;27.83;;;1.60;99.90;;;;;;4955672;28;20239;-70
2021/11/26 00:07:59;;;;;;;80.23;31.40;;;1.60;99.90;;;;;;4955491;28;20682;-71
2021/11/26 00:10:25;;;;;;;71.63;29.23;;;1.60;99.90;;;;;;4955638;28;20181;-71
2021/11/26 00:12:58;;;;;;;67.87;31.20;;;1.60;99.90;;;;;;4949243;28;20575;-71
2021/11/26 00:17:56;;;;;;;69.10;30.53;;;1.70;99.90;;;;;;4943064;28;20393;-72
2021/11/26 00:20:22;;;;;;;65.33;29.77;;;1.70;99.90;;;;;;4935236;29;20414;-71
2021/11/26 00:22:48;;;;;;;61.40;28.53;;;1.60;99.90;;;;;;4935240;29;20875;-71
2021/11/26 00:25:14;;;;;;;75.27;31.60;;;1.70;99.90;;;;;;4934609;29;20194;-71
2021/11/26 00:27:40;;;;;;;68.53;29.77;;;1.60;99.90;;;;;;4936337;29;20508;-71
2021/11/26 00:30:07;;;;;;;70.67;29.60;;;1.60;99.90;;;;;;4936138;29;20508;-71
2021/11/26 00:32:32;;;;;;;61.70;27.83;;;1.60;99.90;;;;;;4934303;29;20282;-70
2021/11/26 00:34:58;;;;;;;64.67;29.10;;;1.60;99.90;;;;;;4935119;29;20476;-71
2021/11/26 00:37:24;;;;;;;72.47;31.83;;;1.60;99.90;;;;;;4937323;29;20208;-71
2021/11/26 00:39:50;;;;;;;64.63;28.70;;;1.50;99.90;;;;;;4935716;29;20188;-70
2021/11/26 00:42:16;;;;;;;59.83;28.83;;;1.50;99.90;;;;;;4935096;29;20790;-71
2021/11/26 00:44:41;;;;;;;70.83;29.70;;;1.50;99.90;;;;;;4935213;29;20915;-71
2021/11/26 00:47:07;;;;;;;61.73;27.80;;;1.50;99.90;;;;;;4935329;29;20385;-71
2021/11/26 00:49:33;;;;;;;68.50;28.30;;;1.50;99.90;;;;;;4935938;29;20240;-72
2021/11/26 00:51:58;;;;;;;67.30;28.77;;;1.50;99.90;;;;;;4935575;29;20205;-71
2021/11/26 00:54:24;;;;;;;70.23;30.63;;;1.40;99.90;;;;;;4935500;29;20675;-71
2021/11/26 00:56:50;;;;;;;61.20;29.27;;;1.40;99.90;;;;;;4935474;29;20210;-72
2021/11/26 00:59:15;;;;;;;64.40;28.90;;;1.40;99.90;;;;;;4935470;29;20549;-70
2021/11/26 05:30:46;;;;;;;63.63;26.63;;;1.60;99.90;;;;;;5976744;23;20339;-71
2021/11/26 05:33:12;;;;;;;70.03;29.40;;;1.60;99.90;;;;;;4948615;28;20445;-70
2021/11/26 05:35:38;;;;;;;66.00;28.30;;;1.60;99.90;;;;;;4951138;29;20413;-72
2021/11/26 05:38:06;;;;;;;66.30;29.13;;;1.60;99.90;;;;;;4954027;28;20396;-71
2021/11/26 05:40:31;;;;;;;65.13;27.87;;;1.60;99.90;;;;;;4953967;28;20191;-73
2021/11/26 05:42:57;;;;;;;66.87;28.53;;;1.60;99.90;;;;;;4953535;28;20399;-73
2021/11/26 05:45:23;;;;;;;66.10;30.50;;;1.60;99.90;;;;;;4953788;28;20636;-71
2021/11/26 05:47:49;;;;;;;64.23;30.13;;;1.60;99.90;;;;;;4953837;28;20184;-72
2021/11/26 05:50:16;;;;;;;63.33;28.47;;;1.60;99.90;;;;;;4953693;28;20203;-71
2021/11/26 05:52:42;;;;;;;63.47;27.23;;;1.60;99.90;;;;;;4953736;28;20201;-72
2021/11/26 05:55:11;;;;;;;64.20;29.20;;;1.60;99.90;;;;;;4953703;28;20391;-73
2021/11/26 05:57:38;;;;;;;63.10;28.93;;;1.60;99.90;;;;;;4953729;28;20446;-72
2021/11/26 06:00:09;;;;;;;67.80;29.47;;;1.70;99.90;;;;;;4953716;28;20400;-73
2021/11/26 06:02:35;;;;;;;57.23;26.57;;;1.60;99.90;;;;;;4953257;28;20920;-72
2021/11/26 06:05:01;;;;;;;64.63;29.23;;;1.60;99.90;;;;;;4952286;28;20445;-72
2021/11/26 06:07:26;;;;;;;73.63;29.60;;;1.70;99.90;;;;;;4950873;28;20399;-73
2021/11/26 06:09:52;;;;;;;68.03;29.17;;;1.70;99.90;;;;;;4952156;28;20181;-72
2021/11/26 06:12:17;;;;;;;71.93;30.27;;;1.60;99.90;;;;;;4953442;28;20270;-72
2021/11/26 06:14:43;;;;;;;64.93;28.30;;;1.70;99.90;;;;;;4953679;28;20673;-72
2021/11/26 06:17:08;;;;;;;66.93;30.90;;;1.70;99.90;;;;;;4952099;28;20699;-73
2021/11/26 06:19:34;;;;;;;64.77;29.23;;;1.70;99.90;;;;;;4953648;28;20195;-73
2021/11/26 06:22:00;;;;;;;59.53;29.10;;;1.70;99.90;;;;;;4953291;28;20687;-73
2021/11/26 06:24:26;;;;;;;69.23;29.77;;;1.70;99.90;;;;;;4953197;28;20180;-73
2021/11/26 06:26:52;;;;;;;59.67;27.87;;;1.70;99.90;;;;;;4953368;28;20417;-73
2021/11/26 06:29:17;;;;;;;63.63;28.90;;;1.70;99.90;;;;;;4953276;28;20406;-72
2021/11/26 06:31:43;;;;;;;69.20;28.73;;;1.70;99.90;;;;;;4953031;28;20594;-71
2021/11/26 06:34:08;;;;;;;60.90;29.20;;;1.80;99.90;;;;;;4951912;28;20192;-72
2021/11/26 06:36:34;;;;;;;64.23;29.30;;;1.80;99.90;;;;;;4953095;28;20696;-72
2021/11/26 06:39:01;;;;;;;64.13;28.83;;;1.80;99.90;;;;;;4953194;28;20178;-73
2021/11/26 06:41:26;;;;;;;64.43;27.70;;;1.80;99.90;;;;;;4953043;28;20201;-73
2021/11/26 06:43:52;;;;;;;59.70;27.37;;;1.80;99.90;;;;;;4953176;28;20438;-73
2021/11/26 06:46:18;;;;;;;53.60;27.47;;;1.70;99.90;;;;;;4952988;28;20184;-74
2021/11/26 06:48:43;;;;;;;68.27;27.83;;;1.60;99.90;;;;;;4951674;28;20259;-73
2021/11/26 06:51:09;;;;;;;59.10;26.90;;;1.60;99.90;;;;;;4953105;28;20419;-72
2021/11/26 06:53:34;;;;;;;62.30;28.23;;;1.60;99.90;;;;;;4952871;28;20184;-70
2021/11/26 06:56:00;;;;;;;67.07;28.47;;;1.70;99.90;;;;;;4953254;28;20219;-70
2021/11/26 06:58:25;;;;;;;61.27;27.33;;;1.60;99.90;;;;;;4952778;28;20248;-71
2021/11/26 07:00:51;;;;;;;62.90;27.17;;;1.60;99.90;;;;;;4953418;28;20200;-71
2021/11/26 07:03:16;;;;;;;60.17;28.30;;;1.70;99.90;;;;;;4953179;28;20174;-71
2021/11/26 07:05:43;;;;;;;65.33;28.30;;;1.70;99.90;;;;;;4953230;28;20182;-71
2021/11/26 07:08:08;;;;;;;62.17;25.97;;;1.80;99.90;;;;;;4952969;28;20551;-71
2021/11/26 07:10:34;;;;;;;63.50;26.40;;;1.80;99.90;;;;;;4953036;28;20387;-70
2021/11/26 07:13:00;;;;;;;63.00;27.70;;;1.80;99.90;;;;;;4951678;28;20181;-71
2021/11/26 07:15:25;;;;;;;59.47;26.47;;;1.90;99.90;;;;;;4952801;28;20189;-71
2021/11/26 07:17:51;;;;;;;58.00;26.67;;;1.90;99.90;;;;;;4952804;28;20833;-70
2021/11/26 07:20:16;;;;;;;66.40;28.67;;;2.00;99.90;;;;;;4952999;28;20173;-71
2021/11/26 07:22:42;;;;;;;73.87;28.73;;;1.90;99.90;;;;;;4951507;28;20288;-71
2021/11/26 07:25:09;;;;;;;72.17;26.77;;;2.00;99.90;;;;;;4952812;28;20208;-71
2021/11/26 07:27:35;;;;;;;68.77;26.40;;;2.00;99.90;;;;;;4952816;28;20450;-70
2021/11/26 07:30:01;;;;;;;61.40;24.10;;;2.00;99.90;;;;;;4952682;28;20415;-71
2021/11/26 07:32:27;;;;;;;51.80;23.60;;;2.10;99.90;;;;;;4952442;28;20879;-71
2021/11/26 07:34:52;;;;;;;49.87;25.00;;;2.10;99.90;;;;;;4954831;28;20399;-71
2021/11/26 07:37:18;;;;;;;51.57;24.20;;;2.10;99.90;;;;;;4956097;28;20213;-71
2021/11/26 07:39:44;;;;;;;52.53;23.77;;;2.10;99.90;;;;;;4956016;28;20179;-71
2021/11/26 07:42:11;;;;;;;55.00;24.97;;;2.10;99.90;;;;;;4955826;28;20203;-71
2021/11/26 07:44:39;;;;;;;52.60;24.60;;;2.10;99.90;;;;;;4955734;28;20483;-71
2021/11/26 07:47:07;;;;;;;49.50;22.30;;;2.20;99.90;;;;;;4944871;28;20410;-69
2021/11/26 07:49:33;;;;;;;48.87;23.67;;;2.20;99.90;;;;;;4955180;28;20412;-72
2021/11/26 07:52:00;;;;;;;49.90;23.80;;;2.20;99.90;;;;;;4945396;29;20416;-72
2021/11/26 07:54:26;;;;;;;46.10;21.30;;;2.30;99.90;;;;;;4947431;28;20423;-72
2021/11/26 07:56:53;;;;;;;43.77;21.20;;;2.30;99.90;;;;;;4939675;28;20469;-72
2021/11/26 07:59:19;;;;;;;45.73;21.60;;;2.30;99.90;;;;;;4936550;29;20796;-71
2021/11/26 08:01:44;;;;;;;44.23;20.47;;;2.30;99.90;;;;;;4936592;29;20522;-71
2021/11/26 08:04:10;;;;;;;45.87;21.17;;;2.20;99.90;;;;;;4936421;29;20725;-70
2021/11/26 08:06:36;;;;;;;41.30;19.53;;;2.30;99.90;;;;;;4936390;29;20648;-70
2021/11/26 08:09:06;;;;;;;38.93;20.00;;;2.30;99.90;;;;;;4936463;29;20402;-72
2021/11/26 08:11:32;;;;;;;40.20;18.87;;;2.30;99.90;;;;;;4936367;29;20289;-71
2021/11/26 08:13:58;;;;;;;38.33;19.30;;;2.30;99.90;;;;;;4919105;29;20526;-70
2021/11/26 08:16:24;;;;;;;39.10;20.33;;;2.30;99.90;;;;;;4936102;29;20868;-69
2021/11/26 08:18:49;;;;;;;39.47;19.03;;;2.40;99.90;;;;;;4936213;29;20514;-72
2021/11/26 08:21:15;;;;;;;39.10;18.10;;;2.40;99.90;;;;;;4936268;29;20197;-71
2021/11/26 08:23:41;;;;;;;47.50;19.80;;;2.40;99.90;;;;;;4936049;29;20181;-70
2021/11/26 08:26:06;;;;;;;43.73;18.67;;;2.40;99.90;;;;;;4936421;29;20650;-71
2021/11/26 08:28:32;;;;;;;38.20;18.47;;;2.50;99.90;;;;;;4935961;29;20181;-71
2021/11/26 08:30:57;;;;;;;51.90;19.80;;;2.50;99.90;;;;;;4936282;29;20210;-73
2021/11/26 08:33:25;;;;;;;39.97;20.07;;;2.50;99.90;;;;;;4935689;29;20186;-71
2021/11/26 08:35:52;;;;;;;41.17;19.33;;;2.60;99.90;;;;;;4936310;29;20597;-70
2021/11/26 08:38:18;;;;;;;36.33;17.73;;;2.60;99.90;;;;;;4935798;29;20418;-70
2021/11/26 08:40:43;;;;;;;42.67;19.80;;;2.50;99.90;;;;;;4936036;29;20460;-72
2021/11/26 08:43:09;;;;;;;39.10;17.77;;;2.30;99.90;;;;;;4935471;29;20211;-72
2021/11/26 08:45:37;;;;;;;39.57;17.30;;;2.40;99.90;;;;;;4934932;29;20858;-72
2021/11/26 08:48:03;;;;;;;32.53;17.20;;;2.50;99.90;;;;;;4935608;29;20172;-71
2021/11/26 08:50:28;;;;;;;34.30;16.10;;;2.50;99.90;;;;;;4935613;29;20455;-69
2021/11/26 08:52:54;;;;;;;29.67;15.00;;;2.60;99.90;;;;;;4935580;29;20432;-70
2021/11/26 08:55:20;;;;;;;36.10;19.30;;;2.60;99.90;;;;;;4935334;29;20550;-70
2021/11/26 08:57:52;;;;;;;31.70;17.10;;;2.70;99.90;;;;;;4935589;29;20232;-69
2021/11/26 09:00:19;;;;;;;31.53;16.13;;;2.70;99.90;;;;;;4935558;29;20188;-73
2021/11/26 09:02:46;;;;;;;39.37;17.77;;;2.70;99.90;;;;;;4935385;29;20445;-71
2021/11/26 09:05:13;;;;;;;34.33;17.80;;;2.80;99.90;;;;;;4935445;29;20468;-72
2021/11/26 09:07:38;;;;;;;45.90;20.47;;;2.80;99.90;;;;;;4935456;29;20824;-71
2021/11/26 09:10:04;;;;;;;51.73;21.90;;;2.60;99.90;;;;;;4935234;29;20424;-72
2021/11/26 09:12:30;;;;;;;36.10;18.43;;;2.70;99.90;;;;;;4934959;29;20206;-72
2021/11/26 09:14:56;;;;;;;37.93;19.70;;;2.70;99.90;;;;;;4935082;29;20928;-71
2021/11/26 09:17:22;;;;;;;40.93;20.20;;;2.80;99.90;;;;;;4935111;29;20431;-72
2021/11/26 09:19:47;;;;;;;39.10;20.33;;;2.80;99.90;;;;;;4935090;29;20178;-73
2021/11/26 09:22:13;;;;;;;45.40;22.00;;;2.80;99.90;;;;;;4935124;29;20496;-71
2021/11/26 09:24:38;;;;;;;41.03;21.10;;;2.80;99.90;;;;;;4935127;29;20302;-73
2021/11/26 09:27:04;;;;;;;53.17;22.17;;;2.80;99.90;;;;;;4935262;29;20531;-72
2021/11/26 09:29:30;;;;;;;44.53;21.60;;;2.80;99.90;;;;;;4935155;29;20216;-73
2021/11/26 09:31:55;;;;;;;50.80;24.03;;;2.90;99.90;;;;;;4935037;29;20217;-72
2021/11/26 09:34:21;;;;;;;50.43;23.77;;;3.00;99.90;;;;;;4934804;29;20185;-72
2021/11/26 09:36:46;;;;;;;46.10;24.73;;;3.00;99.90;;;;;;4935186;29;20213;-73
2021/11/26 09:39:12;;;;;;;49.47;22.13;;;3.00;99.90;;;;;;4934878;29;20221;-73
2021/11/26 09:41:37;;;;;;;56.93;26.13;;;3.00;99.90;;;;;;4934758;29;20289;-70
2021/11/26 09:44:04;;;;;;;50.07;24.80;;;3.00;99.90;;;;;;4934681;29;20672;-70
2021/11/26 09:46:34;;;;;;;53.67;25.63;;;3.10;99.90;;;;;;4934606;29;20193;-72
2021/11/26 09:49:00;;;;;;;57.40;26.33;;;3.10;99.90;;;;;;4934804;29;20420;-72
2021/11/26 09:51:26;;;;;;;52.53;21.80;;;3.20;99.90;;;;;;4934452;29;20728;-71
2021/11/26 09:53:51;;;;;;;53.33;25.13;;;3.20;99.90;;;;;;4934457;29;20428;-71
2021/11/26 09:56:17;;;;;;;54.20;23.93;;;3.20;99.90;;;;;;4934340;29;20197;-71
2021/11/26 09:58:43;;;;;;;52.30;25.07;;;3.30;99.90;;;;;;4934608;29;20183;-71
2021/11/26 10:01:10;;;;;;;51.67;23.70;;;3.30;99.90;;;;;;4934603;29;20193;-71
2021/11/26 10:03:43;;;;;;;50.87;23.67;;;3.30;99.90;;;;;;4934437;29;20181;-72
2021/11/26 10:06:20;;;;;;;46.70;24.77;;;3.30;99.90;;;;;;4934861;29;20425;-72
2021/11/26 10:09:06;;;;;;;42.87;22.40;;;3.30;99.90;;;;;;4934510;29;20401;-71
2021/11/26 10:11:38;;;;;;;47.73;23.13;;;3.30;99.90;;;;;;4934408;29;20492;-70
2021/11/26 10:14:37;;;;;;;63.63;24.00;;;3.30;99.90;;;;;;4934179;29;20385;-72
2021/11/26 10:17:07;;;;;;;46.80;21.97;;;3.30;99.90;;;;;;4927008;29;20475;-72
2021/11/26 10:19:36;;;;;;;47.50;23.37;;;3.30;99.90;;;;;;4936746;28;20429;-72
2021/11/26 10:22:31;;;;;;;46.80;22.50;;;3.40;99.90;;;;;;4958065;28;20417;-72
2021/11/26 10:25:08;;;;;;;50.50;23.03;;;3.40;99.90;;;;;;4957796;28;20502;-69
2021/11/26 10:27:39;;;;;;;47.73;21.00;;;3.40;99.90;;;;;;4972545;28;20429;-70
2021/11/26 10:30:19;;;;;;;48.87;22.03;;;3.40;99.90;;;;;;4972586;28;20385;-70
2021/11/26 10:33:06;;;;;;;46.50;21.23;;;3.50;99.90;;;;;;4965383;28;20831;-70
2021/11/26 10:35:44;;;;;;;46.43;20.83;;;3.50;99.90;;;;;;4953128;28;20387;-72
2021/11/26 10:38:14;;;;;;;40.50;21.23;;;3.60;99.90;;;;;;4953223;28;21141;-71
2021/11/26 10:40:43;;;;;;;41.00;20.70;;;3.60;99.90;;;;;;4953060;28;20494;-71
2021/11/26 10:43:17;;;;;;;40.67;19.97;;;3.60;99.90;;;;;;4952878;28;20472;-71
2021/11/26 10:46:02;;;;;;;39.07;18.87;;;3.70;99.90;;;;;;4953190;28;20406;-71
2021/11/26 10:56:52;;;;;;;36.83;17.70;;;3.70;99.90;;;;;;4972778;28;20552;-71
2021/11/26 10:59:32;;;;;;;38.57;18.90;;;3.70;99.90;;;;;;4972948;28;20419;-73
2021/11/26 11:01:58;;;;;;;43.70;20.80;;;3.70;99.90;;;;;;4962475;28;20441;-72
2021/11/26 11:04:26;;;;;;;39.87;20.93;;;3.70;99.90;;;;;;4942258;28;20387;-72
2021/11/26 11:07:07;;;;;;;43.17;20.17;;;3.70;99.90;;;;;;4941335;29;20673;-71
2021/11/26 11:10:01;;;;;;;38.73;20.27;;;3.70;99.90;;;;;;4946072;29;20413;-72
2021/11/26 11:12:32;;;;;;;43.03;21.07;;;3.70;99.90;;;;;;4956414;28;20418;-72
2021/11/26 11:15:09;;;;;;;37.93;19.47;;;3.70;99.90;;;;;;4956375;28;20911;-72
2021/11/26 11:17:36;;;;;;;43.60;21.90;;;3.70;99.90;;;;;;4956138;28;20456;-71
2021/11/26 11:20:11;;;;;;;45.10;21.77;;;3.70;99.90;;;;;;4956690;28;20381;-73
2021/11/26 11:22:38;;;;;;;40.20;18.77;;;3.60;99.90;;;;;;4954906;28;20975;-71
2021/11/26 11:25:06;;;;;;;39.73;21.07;;;3.60;99.90;;;;;;4956549;28;20424;-72
2021/11/26 11:27:32;;;;;;;52.10;21.80;;;3.40;99.90;;;;;;4956138;28;20501;-72
2021/11/26 11:29:57;;;;;;;44.03;21.97;;;3.40;99.90;;;;;;4956612;28;20499;-72
2021/11/26 11:32:26;;;;;;;48.27;20.77;;;3.40;99.90;;;;;;4956078;28;20698;-72
2021/11/26 11:34:53;;;;;;;55.37;28.60;;;3.50;99.90;;;;;;4954007;28;20232;-72
2021/11/26 11:37:23;;;;;;;51.97;24.40;;;3.50;99.90;;;;;;4955949;28;20978;-72
2021/11/26 11:39:52;;;;;;;47.13;22.40;;;3.60;99.90;;;;;;4956258;28;20778;-71
2021/11/26 11:42:31;;;;;;;45.43;22.00;;;3.60;99.90;;;;;;4954733;28;20451;-72
2021/11/26 11:45:03;;;;;;;51.07;22.63;;;3.60;99.90;;;;;;4956126;28;20451;-72
2021/11/26 11:47:31;;;;;;;44.17;21.93;;;3.60;99.90;;;;;;4955993;28;20396;-72
2021/11/26 11:50:17;;;;;;;56.40;23.60;;;3.60;99.90;;;;;;4956133;28;20873;-72
2021/11/26 11:52:58;;;;;;;54.83;24.17;;;3.70;99.90;;;;;;4955978;28;20442;-70
2021/11/26 11:55:32;;;;;;;48.17;22.57;;;3.60;99.90;;;;;;4956069;28;20391;-73
2021/11/26 11:58:17;;;;;;;43.80;22.47;;;3.60;99.90;;;;;;4956111;28;20503;-72
2021/11/26 12:00:45;;;;;;;52.77;24.60;;;3.70;99.90;;;;;;4955222;28;20503;-71
2021/11/26 12:03:19;;;;;;;52.60;23.40;;;3.70;99.90;;;;;;4955514;28;20417;-71
2021/11/26 12:06:00;;;;;;;45.87;22.33;;;3.70;99.90;;;;;;4955916;28;20507;-72
2021/11/26 12:08:26;;;;;;;54.80;23.20;;;3.80;99.90;;;;;;4955950;28;20413;-72
2021/11/26 12:10:57;;;;;;;41.70;21.50;;;3.80;99.90;;;;;;4954319;28;20455;-72
2021/11/26 12:13:29;;;;;;;50.20;23.40;;;3.80;99.90;;;;;;4955160;28;20206;-71
2021/11/26 12:16:12;;;;;;;39.07;20.03;;;3.80;99.90;;;;;;4955583;28;20416;-71
2021/11/26 12:18:50;;;;;;;37.40;17.70;;;3.80;99.90;;;;;;4954920;28;20464;-73
2021/11/26 12:21:19;;;;;;;37.40;20.37;;;3.80;99.90;;;;;;4952968;28;20452;-72
2021/11/26 12:24:03;;;;;;;38.27;19.17;;;3.80;99.90;;;;;;4953077;28;20772;-72
2021/11/26 12:26:57;;;;;;;34.27;17.10;;;3.80;99.90;;;;;;4955099;28;20754;-72
2021/11/26 12:29:37;;;;;;;45.53;19.70;;;4.10;99.90;;;;;;4955011;28;20418;-70
2021/11/26 12:32:14;;;;;;;34.40;16.97;;;4.10;99.90;;;;;;4955218;28;20647;-72
2021/11/26 12:34:43;;;;;;;37.30;17.50;;;4.20;99.90;;;;;;4955015;28;20418;-72
2021/11/26 12:37:25;;;;;;;40.60;18.80;;;4.20;99.90;;;;;;4954979;28;20939;-73
2021/11/26 12:39:53;;;;;;;42.10;20.57;;;4.20;99.90;;;;;;4955193;28;20604;-72
2021/11/26 12:42:19;;;;;;;49.77;21.00;;;4.20;99.90;;;;;;4955403;28;20424;-72
2021/11/26 12:44:55;;;;;;;37.43;18.60;;;4.20;99.90;;;;;;4954944;28;20500;-72
2021/11/26 12:47:21;;;;;;;40.80;19.83;;;4.30;99.90;;;;;;4953723;28;20761;-72
2021/11/26 12:52:16;;;;;;;48.33;19.07;;;4.40;99.90;;;;;;4952215;28;20927;-73
2021/11/26 12:54:47;;;;;;;44.40;20.60;;;4.50;99.90;;;;;;4954446;28;20181;-72
2021/11/26 12:57:30;;;;;;;33.70;18.23;;;4.60;99.90;;;;;;4953409;28;21033;-72
2021/11/26 13:00:02;;;;;;;34.80;18.20;;;4.70;99.90;;;;;;4954759;28;20491;-72
2021/11/26 13:02:34;;;;;;;43.40;18.30;;;4.70;99.90;;;;;;4951910;28;20473;-73
2021/11/26 13:05:08;;;;;;;40.23;18.93;;;4.70;99.90;;;;;;4954928;28;20406;-73
2021/11/26 13:07:36;;;;;;;37.87;18.40;;;4.70;99.90;;;;;;4955169;28;20428;-73
2021/11/26 13:10:19;;;;;;;33.10;18.23;;;4.70;99.90;;;;;;4954991;28;20429;-73
2021/11/26 13:12:52;;;;;;;39.03;19.33;;;4.70;99.90;;;;;;4955270;28;20442;-71
2021/11/26 13:15:29;;;;;;;38.67;17.50;;;4.70;99.90;;;;;;4954705;28;20800;-72
2021/11/26 13:18:00;;;;;;;36.07;16.00;;;4.70;99.90;;;;;;4955137;28;21082;-71
2021/11/26 13:20:30;;;;;;;34.97;17.50;;;4.70;99.90;;;;;;4954515;28;20427;-73
2021/11/26 13:22:57;;;;;;;37.97;17.80;;;4.70;99.90;;;;;;4954658;28;20476;-73
2021/11/26 13:25:32;;;;;;;35.80;17.87;;;4.80;99.90;;;;;;4955807;28;20450;-69
2021/11/26 13:28:01;;;;;;;48.63;19.17;;;4.70;99.90;;;;;;4954739;28;20508;-71
2021/11/26 13:30:34;;;;;;;39.20;17.80;;;4.70;99.90;;;;;;4953260;28;20826;-71
2021/11/26 13:33:11;;;;;;;34.23;16.23;;;4.70;99.90;;;;;;4953784;28;20823;-72
2021/11/26 13:35:39;;;;;;;33.30;17.63;;;4.60;99.90;;;;;;4954286;28;20424;-72
2021/11/26 13:38:21;;;;;;;38.17;17.37;;;4.60;99.90;;;;;;4954445;28;20488;-72
2021/11/26 13:40:51;;;;;;;39.17;17.97;;;4.60;99.90;;;;;;4953280;28;20416;-71
2021/11/26 13:43:31;;;;;;;37.60;18.07;;;4.70;99.90;;;;;;4954010;28;20407;-73
2021/11/26 13:46:10;;;;;;;38.37;17.63;;;4.70;99.90;;;;;;4954312;28;20839;-72
2021/11/26 13:48:41;;;;;;;43.27;19.40;;;4.70;99.90;;;;;;4953972;28;20915;-72
2021/11/26 13:51:12;;;;;;;37.07;18.77;;;4.70;99.90;;;;;;4954205;28;20436;-72
2021/11/26 13:53:50;;;;;;;31.73;16.43;;;4.80;99.90;;;;;;4953578;28;20449;-73
2021/11/26 13:56:17;;;;;;;33.10;17.00;;;4.70;99.90;;;;;;4953431;28;20632;-71
2021/11/26 13:58:54;;;;;;;30.27;15.97;;;4.80;99.90;;;;;;4935834;28;20430;-72
2021/11/26 14:01:30;;;;;;;31.30;15.83;;;4.70;99.90;;;;;;4934609;29;20492;-73
2021/11/26 14:04:02;;;;;;;26.20;14.57;;;4.70;99.90;;;;;;4934625;29;20413;-71
2021/11/26 14:06:27;;;;;;;28.20;14.33;;;4.70;99.90;;;;;;4934631;29;20432;-72
2021/11/26 14:09:02;;;;;;;30.33;14.83;;;4.70;99.90;;;;;;4934453;29;20886;-73
2021/11/26 14:11:43;;;;;;;26.83;12.87;;;4.70;99.90;;;;;;4934571;29;20193;-73
2021/11/26 14:14:11;;;;;;;22.07;12.50;;;4.70;99.90;;;;;;4932922;29;20537;-72
2021/11/26 14:16:58;;;;;;;23.20;12.70;;;4.80;99.90;;;;;;4934559;29;20630;-73
2021/11/26 14:19:43;;;;;;;23.27;11.90;;;4.70;99.90;;;;;;4934263;29;20425;-72
2021/11/26 14:22:12;;;;;;;21.93;13.27;;;4.70;99.90;;;;;;4934395;29;20948;-72
2021/11/26 14:24:51;;;;;;;25.13;11.90;;;4.60;99.90;;;;;;4934153;29;20425;-72
2021/11/26 14:27:35;;;;;;;24.40;11.80;;;4.60;99.90;;;;;;4934625;29;20452;-72
2021/11/26 14:30:17;;;;;;;22.93;12.33;;;4.70;99.90;;;;;;4934241;29;20428;-72
2021/11/26 14:33:00;;;;;;;23.37;14.10;;;4.70;99.90;;;;;;4934337;29;20461;-71
2021/11/26 14:35:29;;;;;;;21.23;11.53;;;4.60;99.90;;;;;;4934232;29;20505;-72
2021/11/26 14:38:00;;;;;;;27.53;16.00;;;4.60;99.90;;;;;;4934312;29;20445;-72
2021/11/26 14:40:33;;;;;;;21.60;12.40;;;4.50;99.90;;;;;;4941545;29;20419;-72
2021/11/26 14:43:04;;;;;;;22.17;11.63;;;4.50;99.90;;;;;;4947723;28;20442;-72
2021/11/26 14:45:36;;;;;;;15.27;10.23;;;4.50;99.90;;;;;;4947319;29;21203;-72
2021/11/26 14:48:18;;;;;;;15.43;8.97;;;4.40;99.90;;;;;;4941826;28;20407;-72
2021/11/26 14:50:44;;;;;;;20.20;11.43;;;4.40;99.90;;;;;;4938309;29;20786;-72
2021/11/26 14:53:13;;;;;;;20.03;9.23;;;4.40;99.90;;;;;;4938049;29;20427;-72
2021/11/26 14:55:39;;;;;;;17.80;10.73;;;4.50;99.90;;;;;;4937024;29;20399;-72
2021/11/26 14:58:04;;;;;;;15.60;9.43;;;4.50;99.90;;;;;;4938198;29;20964;-72
2021/11/26 15:00:31;;;;;;;16.00;9.43;;;4.40;99.90;;;;;;4938108;29;20186;-73
2021/11/26 15:02:56;;;;;;;21.23;10.50;;;4.40;99.90;;;;;;4938001;29;20178;-73
2021/11/26 15:05:22;;;;;;;15.50;8.50;;;4.40;99.90;;;;;;4937733;29;20421;-72
2021/11/26 15:07:49;;;;;;;15.80;9.43;;;4.40;99.90;;;;;;4938087;29;20186;-72
2021/11/26 15:10:14;;;;;;;21.77;9.87;;;4.40;99.90;;;;;;4937987;29;20554;-72
2021/11/26 15:12:40;;;;;;;18.40;10.70;;;4.40;99.90;;;;;;4937807;29;20451;-72
2021/11/26 15:15:06;;;;;;;15.87;10.50;;;4.30;99.90;;;;;;4937607;29;20215;-72
2021/11/26 15:17:31;;;;;;;15.33;8.10;;;4.30;99.90;;;;;;4937621;29;20279;-73
2021/11/26 15:19:57;;;;;;;15.30;8.77;;;4.30;99.90;;;;;;4937632;29;20188;-72
2021/11/26 15:22:22;;;;;;;14.37;8.60;;;4.30;99.90;;;;;;4937395;29;20227;-72
2021/11/26 15:24:48;;;;;;;20.07;8.90;;;4.30;99.90;;;;;;4937458;29;20247;-72
2021/11/26 15:27:15;;;;;;;15.50;9.53;;;4.30;99.90;;;;;;4937561;29;20185;-73
2021/11/26 15:29:41;;;;;;;16.10;10.50;;;4.20;99.90;;;;;;4937502;29;20668;-73
2021/11/26 15:32:08;;;;;;;10.00;8.00;;;4.10;99.90;;;;;;4935918;29;20469;-72
2021/11/26 15:34:34;;;;;;;11.27;7.43;;;4.10;99.90;;;;;;4937183;29;20399;-72
2021/11/26 15:37:00;;;;;;;10.13;7.47;;;4.10;99.90;;;;;;4937611;29;20448;-74
2021/11/26 15:39:26;;;;;;;12.57;8.10;;;4.10;99.90;;;;;;4937337;29;20591;-72
2021/11/26 15:41:51;;;;;;;18.57;10.37;;;4.20;99.90;;;;;;4937461;29;20438;-73
2021/11/26 15:44:19;;;;;;;11.60;8.40;;;4.20;99.90;;;;;;4937231;29;20396;-73
2021/11/26 15:46:45;;;;;;;18.10;10.70;;;4.10;99.90;;;;;;4937546;29;20655;-73
2021/11/26 15:49:10;;;;;;;10.73;9.00;;;4.10;99.90;;;;;;4936914;29;20461;-73
2021/11/26 15:51:36;;;;;;;13.30;8.73;;;4.10;99.90;;;;;;4937188;29;20214;-74
2021/11/26 15:54:02;;;;;;;10.90;7.20;;;4.00;99.90;;;;;;4936677;29;20182;-74
2021/11/26 15:56:27;;;;;;;15.70;8.17;;;3.90;99.90;;;;;;4936548;29;20495;-75
2021/11/26 15:58:54;;;;;;;19.93;9.97;;;3.90;99.90;;;;;;4943595;28;20188;-75
2021/11/26 16:01:20;;;;;;;16.00;9.73;;;3.90;99.90;;;;;;4955916;28;20677;-74
2021/11/26 16:03:52;;;;;;;16.37;10.13;;;3.90;99.90;;;;;;4955624;28;20420;-74
2021/11/26 16:06:18;;;;;;;24.40;11.97;;;3.80;99.90;;;;;;4955904;28;20422;-74
2021/11/26 16:08:43;;;;;;;14.57;9.80;;;3.80;99.90;;;;;;4955712;28;20413;-74
2021/11/26 16:11:11;;;;;;;24.60;12.13;;;3.80;99.90;;;;;;4955641;28;20580;-74
2021/11/26 16:13:36;;;;;;;15.77;9.50;;;3.80;99.90;;;;;;4955767;28;20283;-75
2021/11/26 16:16:03;;;;;;;12.87;7.43;;;3.70;99.90;;;;;;4955532;28;20492;-74
2021/11/26 16:18:30;;;;;;;11.57;8.60;;;3.70;99.90;;;;;;4955396;28;20188;-74
2021/11/26 16:20:56;;;;;;;15.90;10.10;;;3.70;99.90;;;;;;4955568;28;20797;-74
2021/11/26 16:23:22;;;;;;;17.50;11.07;;;3.70;99.90;;;;;;4955182;28;20387;-75
2021/11/26 16:25:49;;;;;;;13.07;6.77;;;3.70;99.90;;;;;;4955390;28;20391;-74
2021/11/26 16:28:15;;;;;;;11.90;6.50;;;3.70;99.90;;;;;;4955255;28;20264;-73
2021/11/26 16:30:44;;;;;;;13.30;7.33;;;3.70;99.90;;;;;;4955251;28;20400;-75
2021/11/26 16:33:19;;;;;;;12.30;7.37;;;3.70;99.90;;;;;;4954997;28;20392;-74
2021/11/26 16:35:46;;;;;;;11.03;6.93;;;3.70;99.90;;;;;;4955475;28;20414;-74
2021/11/26 16:38:12;;;;;;;11.57;7.33;;;3.80;99.90;;;;;;4954965;28;20445;-74
2021/11/26 16:40:38;;;;;;;13.03;7.80;;;3.70;99.90;;;;;;4955204;28;20400;-74
2021/11/26 16:43:03;;;;;;;12.20;7.93;;;3.80;99.90;;;;;;4955100;28;20181;-74
2021/11/26 16:45:33;;;;;;;12.80;8.20;;;3.70;99.90;;;;;;4953780;28;20958;-75
2021/11/26 16:48:00;;;;;;;20.00;7.70;;;3.70;99.90;;;;;;4954802;28;20174;-73
2021/11/26 16:50:26;;;;;;;17.40;8.43;;;3.70;99.90;;;;;;4954907;28;20421;-74
2021/11/26 16:52:52;;;;;;;11.70;7.37;;;3.70;99.90;;;;;;4954498;28;20447;-74
2021/11/26 16:55:18;;;;;;;10.30;7.37;;;3.70;99.90;;;;;;4954822;28;20465;-74
2021/11/26 16:57:44;;;;;;;13.50;7.13;;;3.70;99.90;;;;;;4954799;28;20470;-74
2021/11/26 17:00:11;;;;;;;16.60;8.03;;;3.70;99.90;;;;;;4954634;28;20421;-73
2021/11/26 17:02:37;;;;;;;20.57;7.63;;;3.60;99.90;;;;;;4954520;28;20498;-73
2021/11/26 17:05:04;;;;;;;13.33;6.93;;;3.60;99.90;;;;;;4954514;28;20887;-73
2021/11/26 17:07:30;;;;;;;13.80;7.00;;;3.60;99.90;;;;;;4952492;28;20433;-70
2021/11/26 17:09:57;;;;;;;10.77;7.00;;;3.60;99.90;;;;;;4934724;28;20556;-73
2021/11/26 17:12:25;;;;;;;11.80;6.17;;;3.60;99.90;;;;;;4949215;28;20418;-73
2021/11/26 17:14:51;;;;;;;13.03;7.57;;;3.60;99.90;;;;;;4934723;29;20413;-74
2021/11/26 17:17:17;;;;;;;14.87;8.53;;;3.60;99.90;;;;;;4933690;29;20455;-74
2021/11/26 17:19:42;;;;;;;11.73;6.50;;;3.50;99.90;;;;;;4935298;29;20415;-75
2021/11/26 17:22:08;;;;;;;11.70;7.40;;;3.50;99.90;;;;;;4933857;29;20434;-73
2021/11/26 17:24:33;;;;;;;9.60;6.73;;;3.50;99.90;;;;;;4934998;29;20185;-75
2021/11/26 17:26:59;;;;;;;10.27;7.00;;;3.50;99.90;;;;;;4935251;29;20283;-75
2021/11/26 17:29:25;;;;;;;12.50;9.20;;;3.50;99.90;;;;;;4934977;29;20181;-75